sensor_id;sensor_type;location;lat;lon;timestamp;P1;durP1;ratioP1;P2;durP2;ratioP2
27576;SDS011;15011;53.380;10.034;2023-03-03T00:00:51;109.07;;;40.58;;
27576;SDS011;15011;53.380;10.034;2023-03-03T00:05:51;107.57;;;41.28;;
27576;SDS011;15011;53.380;10.034;2023-03-03T00:10:52;103.50;;;39.83;;
27576;SDS011;15011;53.380;10.034;2023-03-03T00:15:54;92.13;;;32.10;;
27576;SDS011;15011;53.380;10.034;2023-03-03T00:21:14;126.50;;;43.17;;
27576;SDS011;15011;53.380;10.034;2023-03-03T00:26:20;119.13;;;41.40;;
27576;SDS011;15011;53.380;10.034;2023-03-03T00:31:26;119.68;;;40.80;;
27576;SDS011;15011;53.380;10.034;2023-03-03T00:36:36;118.30;;;39.50;;
27576;SDS011;15011;53.380;10.034;2023-03-03T00:41:38;146.30;;;44.70;;
27576;SDS011;15011;53.380;10.034;2023-03-03T00:46:39;122.93;;;39.63;;
27576;SDS011;15011;53.380;10.034;2023-03-03T00:51:41;152.60;;;45.53;;
27576;SDS011;15011;53.380;10.034;2023-03-03T00:56:42;147.93;;;42.92;;
27576;SDS011;15011;53.380;10.034;2023-03-03T01:01:43;136.32;;;43.95;;
27576;SDS011;15011;53.380;10.034;2023-03-03T01:06:44;130.23;;;42.10;;
27576;SDS011;15011;53.380;10.034;2023-03-03T01:11:44;144.07;;;44.28;;
27576;SDS011;15011;53.380;10.034;2023-03-03T01:16:45;127.78;;;40.38;;
27576;SDS011;15011;53.380;10.034;2023-03-03T01:21:45;118.07;;;40.20;;
27576;SDS011;15011;53.380;10.034;2023-03-03T01:26:47;128.17;;;41.70;;
27576;SDS011;15011;53.380;10.034;2023-03-03T01:31:48;125.43;;;39.17;;
27576;SDS011;15011;53.380;10.034;2023-03-03T01:36:48;140.43;;;41.13;;
27576;SDS011;15011;53.380;10.034;2023-03-03T01:41:49;116.38;;;38.22;;
27576;SDS011;15011;53.380;10.034;2023-03-03T01:51:56;126.03;;;40.28;;
27576;SDS011;15011;53.380;10.034;2023-03-03T01:57:00;131.40;;;40.25;;
27576;SDS011;15011;53.380;10.034;2023-03-03T02:02:03;127.13;;;39.90;;
27576;SDS011;15011;53.380;10.034;2023-03-03T02:07:07;122.32;;;40.35;;
27576;SDS011;15011;53.380;10.034;2023-03-03T02:12:10;144.55;;;42.15;;
27576;SDS011;15011;53.380;10.034;2023-03-03T02:17:12;146.40;;;39.97;;
27576;SDS011;15011;53.380;10.034;2023-03-03T02:22:12;153.15;;;38.83;;
27576;SDS011;15011;53.380;10.034;2023-03-03T02:27:14;140.80;;;41.57;;
27576;SDS011;15011;53.380;10.034;2023-03-03T02:32:14;120.90;;;38.42;;
27576;SDS011;15011;53.380;10.034;2023-03-03T02:37:15;149.95;;;41.03;;
27576;SDS011;15011;53.380;10.034;2023-03-03T02:48:13;124.65;;;39.28;;
27576;SDS011;15011;53.380;10.034;2023-03-03T02:53:13;114.93;;;38.33;;
27576;SDS011;15011;53.380;10.034;2023-03-03T02:58:14;205.20;;;46.35;;
27576;SDS011;15011;53.380;10.034;2023-03-03T03:03:14;111.38;;;36.58;;
27576;SDS011;15011;53.380;10.034;2023-03-03T03:08:15;115.95;;;37.85;;
27576;SDS011;15011;53.380;10.034;2023-03-03T03:13:15;174.85;;;44.78;;
27576;SDS011;15011;53.380;10.034;2023-03-03T03:18:16;103.20;;;35.45;;
27576;SDS011;15011;53.380;10.034;2023-03-03T03:23:16;112.93;;;38.47;;
27576;SDS011;15011;53.380;10.034;2023-03-03T03:28:17;130.07;;;40.58;;
27576;SDS011;15011;53.380;10.034;2023-03-03T03:33:18;127.93;;;39.80;;
27576;SDS011;15011;53.380;10.034;2023-03-03T03:38:18;83.60;;;33.40;;
27576;SDS011;15011;53.380;10.034;2023-03-03T03:43:19;84.72;;;32.55;;
27576;SDS011;15011;53.380;10.034;2023-03-03T03:48:19;79.18;;;30.92;;
27576;SDS011;15011;53.380;10.034;2023-03-03T03:53:20;123.68;;;39.47;;
27576;SDS011;15011;53.380;10.034;2023-03-03T03:58:20;92.15;;;32.80;;
27576;SDS011;15011;53.380;10.034;2023-03-03T04:03:21;121.82;;;37.35;;
27576;SDS011;15011;53.380;10.034;2023-03-03T04:08:21;127.85;;;37.25;;
27576;SDS011;15011;53.380;10.034;2023-03-03T04:13:22;130.68;;;37.30;;
27576;SDS011;15011;53.380;10.034;2023-03-03T04:18:22;129.65;;;39.42;;
27576;SDS011;15011;53.380;10.034;2023-03-03T04:23:22;117.07;;;37.17;;
27576;SDS011;15011;53.380;10.034;2023-03-03T04:28:23;101.20;;;33.40;;
27576;SDS011;15011;53.380;10.034;2023-03-03T04:33:24;105.20;;;35.08;;
27576;SDS011;15011;53.380;10.034;2023-03-03T04:38:24;91.03;;;32.58;;
27576;SDS011;15011;53.380;10.034;2023-03-03T04:43:25;89.50;;;33.00;;
27576;SDS011;15011;53.380;10.034;2023-03-03T04:48:25;78.13;;;31.90;;
27576;SDS011;15011;53.380;10.034;2023-03-03T04:53:26;82.53;;;31.30;;
27576;SDS011;15011;53.380;10.034;2023-03-03T04:58:26;85.85;;;30.63;;
27576;SDS011;15011;53.380;10.034;2023-03-03T05:03:27;98.32;;;32.58;;
27576;SDS011;15011;53.380;10.034;2023-03-03T05:08:27;61.28;;;26.83;;
27576;SDS011;15011;53.380;10.034;2023-03-03T05:13:28;66.43;;;26.43;;
27576;SDS011;15011;53.380;10.034;2023-03-03T05:18:28;64.82;;;27.52;;
27576;SDS011;15011;53.380;10.034;2023-03-03T05:23:29;58.95;;;26.63;;
27576;SDS011;15011;53.380;10.034;2023-03-03T05:28:30;70.35;;;28.17;;
27576;SDS011;15011;53.380;10.034;2023-03-03T05:33:31;64.70;;;26.73;;
27576;SDS011;15011;53.380;10.034;2023-03-03T05:38:32;77.63;;;29.23;;
27576;SDS011;15011;53.380;10.034;2023-03-03T05:43:32;53.97;;;25.63;;
27576;SDS011;15011;53.380;10.034;2023-03-03T05:48:33;64.20;;;27.50;;
27576;SDS011;15011;53.380;10.034;2023-03-03T05:53:33;60.95;;;27.42;;
27576;SDS011;15011;53.380;10.034;2023-03-03T05:58:34;63.53;;;27.65;;
27576;SDS011;15011;53.380;10.034;2023-03-03T06:03:35;87.82;;;32.05;;
27576;SDS011;15011;53.380;10.034;2023-03-03T06:08:35;73.03;;;27.42;;
27576;SDS011;15011;53.380;10.034;2023-03-03T06:13:35;55.45;;;25.63;;
27576;SDS011;15011;53.380;10.034;2023-03-03T06:18:36;64.95;;;26.58;;
27576;SDS011;15011;53.380;10.034;2023-03-03T06:23:36;81.75;;;30.05;;
27576;SDS011;15011;53.380;10.034;2023-03-03T06:28:37;97.65;;;31.45;;
27576;SDS011;15011;53.380;10.034;2023-03-03T06:33:37;83.95;;;32.63;;
27576;SDS011;15011;53.380;10.034;2023-03-03T06:38:38;90.18;;;32.20;;
27576;SDS011;15011;53.380;10.034;2023-03-03T06:43:38;83.90;;;31.63;;
27576;SDS011;15011;53.380;10.034;2023-03-03T06:48:39;86.72;;;30.63;;
27576;SDS011;15011;53.380;10.034;2023-03-03T06:53:40;73.05;;;29.45;;
27576;SDS011;15011;53.380;10.034;2023-03-03T06:58:40;69.45;;;28.02;;
27576;SDS011;15011;53.380;10.034;2023-03-03T07:03:40;68.97;;;27.98;;
27576;SDS011;15011;53.380;10.034;2023-03-03T07:08:41;67.35;;;28.27;;
27576;SDS011;15011;53.380;10.034;2023-03-03T07:13:43;66.43;;;28.43;;
27576;SDS011;15011;53.380;10.034;2023-03-03T07:18:53;69.72;;;27.58;;
27576;SDS011;15011;53.380;10.034;2023-03-03T07:23:55;74.80;;;28.92;;
27576;SDS011;15011;53.380;10.034;2023-03-03T07:34:01;60.55;;;25.55;;
27576;SDS011;15011;53.380;10.034;2023-03-03T07:44:35;50.85;;;22.58;;
27576;SDS011;15011;53.380;10.034;2023-03-03T07:49:36;42.65;;;19.77;;
27576;SDS011;15011;53.380;10.034;2023-03-03T07:54:38;53.83;;;24.20;;
27576;SDS011;15011;53.380;10.034;2023-03-03T07:59:49;49.63;;;22.33;;
27576;SDS011;15011;53.380;10.034;2023-03-03T08:05:00;41.50;;;20.98;;
27576;SDS011;15011;53.380;10.034;2023-03-03T08:10:01;41.80;;;20.60;;
27576;SDS011;15011;53.380;10.034;2023-03-03T08:15:14;34.38;;;17.58;;
27576;SDS011;15011;53.380;10.034;2023-03-03T08:25:29;34.78;;;18.00;;
27576;SDS011;15011;53.380;10.034;2023-03-03T08:30:30;39.20;;;18.02;;
27576;SDS011;15011;53.380;10.034;2023-03-03T08:35:31;34.28;;;18.15;;
27576;SDS011;15011;53.380;10.034;2023-03-03T08:40:31;39.55;;;20.45;;
27576;SDS011;15011;53.380;10.034;2023-03-03T08:45:33;36.38;;;17.42;;
27576;SDS011;15011;53.380;10.034;2023-03-03T08:50:33;43.08;;;20.55;;
27576;SDS011;15011;53.380;10.034;2023-03-03T08:55:34;40.53;;;19.38;;
27576;SDS011;15011;53.380;10.034;2023-03-03T09:00:34;39.70;;;19.73;;
27576;SDS011;15011;53.380;10.034;2023-03-03T09:05:36;35.97;;;18.60;;
27576;SDS011;15011;53.380;10.034;2023-03-03T09:10:37;42.03;;;20.58;;
27576;SDS011;15011;53.380;10.034;2023-03-03T09:15:38;33.60;;;16.77;;
27576;SDS011;15011;53.380;10.034;2023-03-03T09:20:39;29.77;;;14.32;;
27576;SDS011;15011;53.380;10.034;2023-03-03T09:25:41;31.38;;;16.70;;
27576;SDS011;15011;53.380;10.034;2023-03-03T09:30:43;33.40;;;17.77;;
27576;SDS011;15011;53.380;10.034;2023-03-03T09:35:49;34.50;;;17.73;;
27576;SDS011;15011;53.380;10.034;2023-03-03T10:17:47;24.52;;;13.93;;
27576;SDS011;15011;53.380;10.034;2023-03-03T10:28:31;20.90;;;12.90;;
27576;SDS011;15011;53.380;10.034;2023-03-03T10:33:38;21.17;;;13.02;;
27576;SDS011;15011;53.380;10.034;2023-03-03T10:44:25;20.48;;;12.05;;
27576;SDS011;15011;53.380;10.034;2023-03-03T11:00:49;26.58;;;16.05;;
27576;SDS011;15011;53.380;10.034;2023-03-03T11:21:43;18.02;;;10.52;;
27576;SDS011;15011;53.380;10.034;2023-03-03T11:26:56;17.73;;;9.93;;
27576;SDS011;15011;53.380;10.034;2023-03-03T12:13:51;18.10;;;9.82;;
27576;SDS011;15011;53.380;10.034;2023-03-03T12:34:33;15.75;;;6.85;;
27576;SDS011;15011;53.380;10.034;2023-03-03T13:00:30;13.30;;;6.00;;
27576;SDS011;15011;53.380;10.034;2023-03-03T13:05:33;19.50;;;6.13;;
27576;SDS011;15011;53.380;10.034;2023-03-03T13:11:41;16.30;;;5.40;;
27576;SDS011;15011;53.380;10.034;2023-03-03T13:16:38;13.50;;;5.27;;
27576;SDS011;15011;53.380;10.034;2023-03-03T13:21:53;10.70;;;5.10;;
27576;SDS011;15011;53.380;10.034;2023-03-03T13:26:57;10.18;;;4.53;;
27576;SDS011;15011;53.380;10.034;2023-03-03T13:32:07;10.80;;;5.00;;
27576;SDS011;15011;53.380;10.034;2023-03-03T13:42:23;10.63;;;4.15;;
27576;SDS011;15011;53.380;10.034;2023-03-03T14:03:47;9.00;;;4.00;;
27576;SDS011;15011;53.380;10.034;2023-03-03T14:56:33;4.03;;;2.90;;
27576;SDS011;15011;53.380;10.034;2023-03-03T15:01:36;5.50;;;3.08;;
27576;SDS011;15011;53.380;10.034;2023-03-03T15:06:44;6.72;;;2.03;;
27576;SDS011;15011;53.380;10.034;2023-03-03T15:11:47;7.95;;;2.00;;
27576;SDS011;15011;53.380;10.034;2023-03-03T15:16:56;7.10;;;2.25;;
27576;SDS011;15011;53.380;10.034;2023-03-03T15:22:18;9.63;;;2.30;;
27576;SDS011;15011;53.380;10.034;2023-03-03T15:27:43;7.55;;;2.10;;
27576;SDS011;15011;53.380;10.034;2023-03-03T15:32:55;10.13;;;2.28;;
27576;SDS011;15011;53.380;10.034;2023-03-03T15:38:02;5.75;;;1.80;;
27576;SDS011;15011;53.380;10.034;2023-03-03T15:43:26;7.35;;;1.70;;
27576;SDS011;15011;53.380;10.034;2023-03-03T16:04:00;4.60;;;2.17;;
27576;SDS011;15011;53.380;10.034;2023-03-03T16:14:19;4.18;;;2.05;;
27576;SDS011;15011;53.380;10.034;2023-03-03T16:19:40;7.47;;;2.58;;
27576;SDS011;15011;53.380;10.034;2023-03-03T16:35:33;3.35;;;2.03;;
27576;SDS011;15011;53.380;10.034;2023-03-03T16:45:45;7.93;;;3.00;;
27576;SDS011;15011;53.380;10.034;2023-03-03T16:50:49;15.93;;;7.53;;
27576;SDS011;15011;53.380;10.034;2023-03-03T16:56:17;8.00;;;2.72;;
27576;SDS011;15011;53.380;10.034;2023-03-03T17:01:28;9.27;;;3.03;;
27576;SDS011;15011;53.380;10.034;2023-03-03T17:17:00;7.63;;;3.70;;
27576;SDS011;15011;53.380;10.034;2023-03-03T17:22:17;13.73;;;3.03;;
27576;SDS011;15011;53.380;10.034;2023-03-03T17:38:19;10.13;;;2.95;;
27576;SDS011;15011;53.380;10.034;2023-03-03T17:48:37;21.20;;;3.38;;
27576;SDS011;15011;53.380;10.034;2023-03-03T18:09:33;27.17;;;3.83;;
27576;SDS011;15011;53.380;10.034;2023-03-03T18:15:07;25.20;;;3.80;;
27576;SDS011;15011;53.380;10.034;2023-03-03T18:26:00;29.98;;;4.20;;
27576;SDS011;15011;53.380;10.034;2023-03-03T18:36:12;26.17;;;4.85;;
27576;SDS011;15011;53.380;10.034;2023-03-03T18:41:26;24.88;;;3.92;;
27576;SDS011;15011;53.380;10.034;2023-03-03T18:56:42;30.73;;;5.53;;
27576;SDS011;15011;53.380;10.034;2023-03-03T19:01:48;26.30;;;4.18;;
27576;SDS011;15011;53.380;10.034;2023-03-03T19:06:54;23.50;;;4.77;;
27576;SDS011;15011;53.380;10.034;2023-03-03T19:11:56;28.10;;;4.55;;
27576;SDS011;15011;53.380;10.034;2023-03-03T19:16:57;30.92;;;4.72;;
27576;SDS011;15011;53.380;10.034;2023-03-03T19:27:34;22.08;;;3.78;;
27576;SDS011;15011;53.380;10.034;2023-03-03T20:05:19;27.05;;;5.15;;
27576;SDS011;15011;53.380;10.034;2023-03-03T20:32:08;39.72;;;6.15;;
27576;SDS011;15011;53.380;10.034;2023-03-03T20:53:13;42.75;;;4.55;;
27576;SDS011;15011;53.380;10.034;2023-03-03T21:13:47;28.45;;;5.13;;
27576;SDS011;15011;53.380;10.034;2023-03-03T21:18:57;26.60;;;4.50;;
27576;SDS011;15011;53.380;10.034;2023-03-03T21:24:01;43.85;;;4.90;;
27576;SDS011;15011;53.380;10.034;2023-03-03T21:29:02;32.35;;;5.68;;
27576;SDS011;15011;53.380;10.034;2023-03-03T21:34:03;29.13;;;4.70;;
27576;SDS011;15011;53.380;10.034;2023-03-03T21:49:38;30.40;;;4.43;;
27576;SDS011;15011;53.380;10.034;2023-03-03T21:54:43;31.73;;;4.80;;
27576;SDS011;15011;53.380;10.034;2023-03-03T22:04:45;25.23;;;3.83;;
27576;SDS011;15011;53.380;10.034;2023-03-03T22:09:45;37.47;;;5.05;;
27576;SDS011;15011;53.380;10.034;2023-03-03T22:14:46;25.70;;;4.80;;
27576;SDS011;15011;53.380;10.034;2023-03-03T22:19:46;36.33;;;5.18;;
27576;SDS011;15011;53.380;10.034;2023-03-03T22:24:47;31.70;;;4.65;;
27576;SDS011;15011;53.380;10.034;2023-03-03T22:29:47;24.48;;;3.78;;
27576;SDS011;15011;53.380;10.034;2023-03-03T22:34:48;46.30;;;4.90;;
27576;SDS011;15011;53.380;10.034;2023-03-03T22:39:48;31.33;;;4.63;;
27576;SDS011;15011;53.380;10.034;2023-03-03T22:44:48;31.40;;;3.90;;
27576;SDS011;15011;53.380;10.034;2023-03-03T22:49:49;30.48;;;4.82;;
27576;SDS011;15011;53.380;10.034;2023-03-03T22:54:49;28.92;;;4.32;;
27576;SDS011;15011;53.380;10.034;2023-03-03T22:59:50;25.15;;;4.00;;
27576;SDS011;15011;53.380;10.034;2023-03-03T23:04:50;28.30;;;3.75;;
27576;SDS011;15011;53.380;10.034;2023-03-03T23:09:57;21.88;;;3.67;;
27576;SDS011;15011;53.380;10.034;2023-03-03T23:14:57;26.92;;;3.20;;
27576;SDS011;15011;53.380;10.034;2023-03-03T23:19:57;24.55;;;3.83;;
27576;SDS011;15011;53.380;10.034;2023-03-03T23:24:58;24.47;;;3.30;;
27576;SDS011;15011;53.380;10.034;2023-03-03T23:29:58;20.70;;;3.28;;
27576;SDS011;15011;53.380;10.034;2023-03-03T23:34:59;24.33;;;3.72;;
27576;SDS011;15011;53.380;10.034;2023-03-03T23:39:59;27.98;;;4.00;;
27576;SDS011;15011;53.380;10.034;2023-03-03T23:45:00;20.48;;;3.30;;
27576;SDS011;15011;53.380;10.034;2023-03-03T23:50:00;26.98;;;3.72;;
27576;SDS011;15011;53.380;10.034;2023-03-03T23:55:01;19.45;;;3.60;;
